KGNV 280153Z 00000KT 10SM CLR 24/17 A2993 RMK AO2 SLP131 T02440167